createdAt,value
2018-12-06T00:00:12.963Z,14.70
2018-12-06T00:01:19.215Z,13.77
2018-12-06T00:02:23.313Z,13.37
2018-12-06T00:03:34.045Z,13.83
2018-12-06T00:04:38.208Z,13.40
2018-12-06T00:05:42.283Z,14.50
2018-12-06T00:06:46.317Z,12.37
2018-12-06T00:08:01.699Z,15.40
2018-12-06T00:09:05.978Z,14.87
2018-12-06T00:10:11.385Z,13.73
2018-12-06T00:11:15.437Z,11.80
2018-12-06T00:12:19.607Z,17.53
2018-12-06T00:13:23.732Z,13.17
2018-12-06T00:14:27.756Z,15.63
2018-12-06T00:15:31.933Z,14.43
2018-12-06T00:16:35.985Z,15.20
2018-12-06T00:17:40.080Z,13.97
2018-12-06T00:18:50.680Z,13.23
2018-12-06T00:19:54.706Z,15.60
2018-12-06T00:20:58.777Z,15.43
2018-12-06T00:22:02.841Z,13.43
2018-12-06T00:23:06.911Z,14.13
2018-12-06T00:24:10.948Z,14.97
2018-12-06T00:25:15.057Z,15.27
2018-12-06T00:26:19.172Z,16.97
2018-12-06T00:27:23.311Z,13.00
2018-12-06T00:28:28.212Z,15.73
2018-12-06T00:29:32.258Z,14.80
2018-12-06T00:30:38.439Z,13.37
2018-12-06T00:31:42.713Z,15.17
2018-12-06T00:32:47.346Z,15.97
2018-12-06T00:33:52.889Z,13.53
2018-12-06T00:34:57.034Z,14.93
2018-12-06T00:36:01.146Z,15.47
2018-12-06T00:37:05.579Z,14.43
2018-12-06T00:38:09.654Z,14.10
2018-12-06T00:39:13.673Z,14.87
2018-12-06T00:40:17.729Z,14.77
2018-12-06T00:41:22.045Z,16.00
2018-12-06T00:42:26.503Z,15.83
2018-12-06T00:43:30.917Z,15.90
2018-12-06T00:44:34.978Z,14.60
2018-12-06T00:45:39.260Z,17.83
2018-12-06T00:46:43.574Z,16.23
2018-12-06T00:47:48.238Z,13.90
2018-12-06T00:48:52.382Z,14.97
2018-12-06T00:49:56.626Z,15.47
2018-12-06T00:51:00.864Z,15.37
2018-12-06T00:52:05.035Z,19.10
2018-12-06T00:53:09.088Z,19.00
2018-12-06T00:54:14.131Z,19.50
2018-12-06T00:55:18.270Z,18.67
2018-12-06T00:56:22.272Z,18.07
2018-12-06T00:57:26.344Z,17.57
2018-12-06T00:58:30.469Z,21.60
2018-12-06T00:59:34.470Z,17.60
2018-12-06T01:00:38.545Z,17.87
2018-12-06T01:01:42.628Z,18.87
2018-12-06T01:02:46.660Z,20.40
2018-12-06T01:03:50.775Z,18.10
2018-12-06T01:04:55.071Z,21.97
2018-12-06T01:05:59.090Z,18.63
2018-12-06T01:07:03.168Z,19.20
2018-12-06T01:08:07.572Z,18.20
2018-12-06T01:09:11.767Z,17.20
2018-12-06T01:10:17.764Z,19.87
2018-12-06T01:11:21.865Z,20.90
2018-12-06T01:12:25.941Z,15.47
2018-12-06T01:13:30.047Z,18.87
2018-12-06T01:14:40.903Z,19.43
2018-12-06T01:15:44.924Z,18.13
2018-12-06T01:16:49.005Z,17.57
2018-12-06T01:17:53.059Z,18.67
2018-12-06T01:18:57.080Z,20.80
2018-12-06T01:20:01.295Z,18.13
2018-12-06T01:21:05.453Z,17.03
2018-12-06T01:22:09.494Z,23.43
2018-12-06T01:23:13.531Z,19.13
2018-12-06T01:24:17.580Z,19.33
2018-12-06T01:25:21.669Z,17.83
2018-12-06T01:26:25.718Z,18.43
2018-12-06T01:27:29.777Z,18.33
2018-12-06T01:28:33.829Z,18.07
2018-12-06T01:29:37.853Z,18.20
2018-12-06T01:30:41.954Z,19.27
2018-12-06T01:31:45.993Z,17.23
2018-12-06T01:32:50.117Z,23.33
2018-12-06T01:33:54.161Z,17.33
2018-12-06T01:34:58.209Z,16.47
2018-12-06T01:36:02.341Z,20.00
2018-12-06T01:37:06.377Z,18.27
2018-12-06T01:38:10.421Z,21.97
2018-12-06T01:39:14.472Z,17.03
2018-12-06T01:40:18.443Z,19.97
2018-12-06T01:41:22.581Z,16.57
2018-12-06T01:42:26.618Z,19.40
2018-12-06T01:43:30.671Z,18.33
2018-12-06T01:44:34.774Z,15.47
2018-12-06T01:45:38.889Z,19.17
2018-12-06T01:46:42.945Z,19.70
2018-12-06T01:47:46.979Z,19.00
2018-12-06T01:48:50.990Z,21.67
2018-12-06T01:49:54.988Z,17.57
2018-12-06T01:50:59.041Z,18.17
2018-12-06T01:52:03.132Z,20.53
2018-12-06T01:53:07.181Z,19.43
2018-12-06T01:54:11.415Z,20.33
2018-12-06T01:55:15.601Z,17.40
2018-12-06T01:56:19.789Z,19.27
2018-12-06T01:57:23.838Z,19.67
2018-12-06T01:58:27.855Z,19.00
2018-12-06T01:59:31.891Z,18.73
2018-12-06T02:00:35.918Z,24.07
2018-12-06T02:01:40.705Z,21.07
2018-12-06T02:02:44.736Z,19.13
2018-12-06T02:03:48.768Z,20.83
2018-12-06T02:04:52.815Z,18.97
2018-12-06T02:05:56.793Z,18.30
2018-12-06T02:07:00.827Z,17.63
2018-12-06T02:08:04.882Z,16.93
2018-12-06T02:09:10.108Z,18.10
2018-12-06T02:10:14.185Z,19.53
2018-12-06T02:11:18.257Z,19.77
2018-12-06T02:12:22.493Z,18.07
2018-12-06T02:13:26.745Z,19.47
2018-12-06T02:14:30.849Z,21.53
2018-12-06T02:15:34.859Z,18.33
2018-12-06T02:16:39.001Z,25.20
2018-12-06T02:17:43.035Z,19.70
2018-12-06T02:18:47.036Z,21.43
2018-12-06T02:19:51.039Z,24.23
2018-12-06T02:20:55.110Z,19.87
2018-12-06T02:21:59.240Z,19.17
2018-12-06T02:23:03.283Z,18.10
2018-12-06T02:24:07.333Z,17.73
2018-12-06T02:25:11.536Z,20.57
2018-12-06T02:26:15.579Z,19.37
2018-12-06T02:27:19.653Z,18.00
2018-12-06T02:28:23.811Z,22.33
2018-12-06T02:29:32.062Z,18.67
2018-12-06T02:30:36.107Z,19.80
2018-12-06T02:31:40.131Z,18.70
2018-12-06T02:32:44.209Z,20.13
2018-12-06T02:33:48.421Z,21.33
2018-12-06T02:34:52.500Z,18.93
2018-12-06T02:35:56.542Z,19.90
2018-12-06T02:37:00.710Z,24.07
2018-12-06T02:38:04.774Z,22.33
2018-12-06T02:39:09.024Z,20.73
2018-12-06T02:40:13.119Z,19.50
2018-12-06T02:41:17.186Z,17.70
2018-12-06T02:42:21.250Z,19.60
2018-12-06T02:43:25.373Z,26.03
2018-12-06T02:44:29.510Z,19.70
2018-12-06T02:45:33.525Z,22.70
2018-12-06T02:46:37.577Z,19.13
2018-12-06T02:47:41.681Z,21.20
2018-12-06T02:48:45.701Z,22.73
2018-12-06T02:49:49.710Z,21.83
2018-12-06T02:50:53.745Z,21.40
2018-12-06T02:51:57.815Z,20.00
2018-12-06T02:53:01.877Z,21.30
2018-12-06T02:54:05.996Z,21.77
2018-12-06T02:55:10.053Z,18.83
2018-12-06T02:56:14.094Z,19.40
2018-12-06T02:57:18.127Z,19.90
2018-12-06T02:58:22.240Z,21.73
2018-12-06T02:59:26.298Z,23.10
2018-12-06T03:00:30.377Z,21.97
2018-12-06T03:01:34.436Z,25.87
2018-12-06T03:02:38.519Z,21.27
2018-12-06T03:03:42.846Z,23.77
2018-12-06T03:04:46.913Z,20.90
2018-12-06T03:05:50.956Z,21.70
2018-12-06T03:06:54.975Z,22.77
2018-12-06T03:07:59.014Z,22.17
2018-12-06T03:09:04.582Z,21.93
2018-12-06T03:10:10.645Z,19.73
2018-12-06T03:11:14.707Z,24.33
2018-12-06T03:12:18.731Z,23.00
2018-12-06T03:13:23.878Z,21.13
2018-12-06T03:14:28.030Z,22.47
2018-12-06T03:15:34.472Z,20.10
2018-12-06T03:16:38.529Z,22.07
2018-12-06T03:17:43.673Z,24.07
2018-12-06T03:18:47.768Z,23.63
2018-12-06T03:19:51.813Z,25.80
2018-12-06T03:20:55.848Z,21.60
2018-12-06T03:21:59.935Z,24.03
2018-12-06T03:23:03.957Z,22.63
2018-12-06T03:24:08.080Z,20.73
2018-12-06T03:25:12.283Z,22.83
2018-12-06T03:26:16.333Z,24.13
2018-12-06T03:27:20.604Z,20.20
2018-12-06T03:28:24.665Z,24.30
2018-12-06T03:29:28.891Z,20.97
2018-12-06T03:30:32.965Z,20.43
2018-12-06T03:31:37.027Z,20.57
2018-12-06T03:32:41.078Z,19.13
2018-12-06T03:33:45.161Z,19.33
2018-12-06T03:34:49.205Z,20.50
2018-12-06T03:35:53.365Z,19.57
2018-12-06T03:36:57.654Z,18.63
2018-12-06T03:38:01.793Z,19.37
2018-12-06T03:39:07.596Z,22.50
2018-12-06T03:40:11.884Z,19.47
2018-12-06T03:41:15.952Z,18.07
2018-12-06T03:42:21.194Z,19.77
2018-12-06T03:43:26.330Z,20.70
2018-12-06T03:44:32.433Z,17.23
2018-12-06T03:45:36.478Z,18.57
2018-12-06T03:46:40.590Z,18.07
2018-12-06T03:47:44.642Z,21.33
2018-12-06T03:48:48.759Z,18.63
2018-12-06T03:49:52.816Z,17.47
2018-12-06T03:50:56.831Z,19.97
2018-12-06T03:52:01.064Z,18.50
2018-12-06T03:53:05.095Z,21.27
2018-12-06T03:54:09.284Z,21.07
2018-12-06T03:55:13.421Z,21.83
2018-12-06T03:56:17.522Z,18.90
2018-12-06T03:57:22.346Z,22.37
2018-12-06T03:58:26.523Z,22.40
2018-12-06T03:59:30.563Z,22.50
2018-12-06T04:00:34.662Z,21.83
2018-12-06T04:01:38.735Z,20.03
2018-12-06T04:02:43.086Z,17.03
2018-12-06T04:03:47.140Z,20.70
2018-12-06T04:04:51.258Z,20.50
2018-12-06T04:05:55.351Z,21.07
2018-12-06T04:06:59.362Z,20.43
2018-12-06T04:08:03.458Z,18.43
2018-12-06T04:09:09.492Z,18.77
2018-12-06T04:10:13.582Z,19.70
2018-12-06T04:11:17.615Z,21.70
2018-12-06T04:12:21.692Z,23.83
2018-12-06T04:13:25.763Z,20.53
2018-12-06T04:14:29.868Z,21.43
2018-12-06T04:15:34.123Z,24.10
2018-12-06T04:16:38.179Z,22.33
2018-12-06T04:17:42.555Z,20.83
2018-12-06T04:18:46.690Z,22.50
2018-12-06T04:19:50.752Z,19.77
2018-12-06T04:20:54.867Z,22.83
2018-12-06T04:21:58.921Z,22.50
2018-12-06T04:23:03.000Z,22.27
2018-12-06T04:24:07.024Z,21.40
2018-12-06T04:25:11.079Z,22.97
2018-12-06T04:26:15.176Z,20.23
2018-12-06T04:27:19.195Z,24.67
2018-12-06T04:28:36.233Z,23.83
2018-12-06T04:29:40.309Z,26.43
2018-12-06T04:30:44.370Z,22.33
2018-12-06T04:31:50.413Z,22.20
2018-12-06T04:32:54.470Z,22.97
2018-12-06T04:33:58.554Z,23.10
2018-12-06T04:35:02.693Z,25.10
2018-12-06T04:36:06.719Z,26.47
2018-12-06T04:37:10.898Z,24.93
2018-12-06T04:38:16.023Z,24.03
2018-12-06T04:39:20.189Z,25.17
2018-12-06T04:40:24.257Z,25.30
2018-12-06T04:41:28.362Z,22.20
2018-12-06T04:42:32.369Z,23.13
2018-12-06T04:43:36.458Z,23.07
2018-12-06T04:44:40.530Z,26.67
2018-12-06T04:45:44.643Z,26.80
2018-12-06T04:46:48.691Z,24.23
2018-12-06T04:47:52.862Z,25.40
2018-12-06T04:48:57.002Z,23.77
2018-12-06T04:50:01.132Z,25.83
2018-12-06T04:51:05.349Z,24.73
2018-12-06T04:52:09.437Z,23.30
2018-12-06T04:53:13.655Z,28.47
2018-12-06T04:54:17.801Z,28.60
2018-12-06T04:55:21.855Z,24.77
2018-12-06T04:56:25.939Z,24.97
2018-12-06T04:57:30.086Z,27.70
2018-12-06T04:58:34.225Z,25.20
2018-12-06T04:59:38.334Z,26.43
2018-12-06T05:00:42.425Z,23.63
2018-12-06T05:01:46.548Z,26.60
2018-12-06T05:02:50.594Z,23.57
2018-12-06T05:03:54.789Z,26.23
2018-12-06T05:04:58.927Z,23.20
2018-12-06T05:06:03.036Z,27.17
2018-12-06T05:07:07.172Z,27.90
2018-12-06T05:08:11.420Z,26.57
2018-12-06T05:09:15.511Z,26.57
2018-12-06T05:10:19.656Z,24.77
2018-12-06T05:11:23.813Z,27.23
2018-12-06T05:12:27.887Z,27.23
2018-12-06T05:13:31.973Z,29.73
2018-12-06T05:14:36.083Z,28.93
2018-12-06T05:15:40.190Z,31.97
2018-12-06T05:16:44.502Z,28.67
2018-12-06T05:17:48.589Z,29.27
2018-12-06T05:18:52.806Z,28.63
2018-12-06T05:19:57.013Z,33.70
2018-12-06T05:21:01.165Z,31.77
2018-12-06T05:22:05.289Z,30.97
2018-12-06T05:23:09.394Z,30.07
2018-12-06T05:24:13.465Z,30.87
2018-12-06T05:25:17.566Z,31.77
2018-12-06T05:26:21.783Z,31.33
2018-12-06T05:27:25.841Z,35.00
2018-12-06T05:28:29.968Z,35.83
2018-12-06T05:29:34.071Z,38.67
2018-12-06T05:30:38.114Z,40.10
2018-12-06T05:31:42.196Z,34.90
2018-12-06T05:32:46.281Z,35.43
2018-12-06T05:33:50.337Z,37.67
2018-12-06T05:34:54.399Z,33.53
2018-12-06T05:35:58.525Z,32.90
2018-12-06T05:37:02.664Z,38.13
2018-12-06T05:38:06.729Z,36.80
2018-12-06T05:39:10.834Z,32.57
2018-12-06T05:40:14.897Z,42.17
2018-12-06T05:41:19.063Z,36.53
2018-12-06T05:42:24.341Z,42.53
2018-12-06T05:43:28.391Z,37.93
2018-12-06T05:44:32.451Z,42.40
2018-12-06T05:45:36.573Z,42.93
2018-12-06T05:46:40.715Z,41.13
2018-12-06T05:47:44.783Z,40.00
2018-12-06T05:48:48.954Z,45.50
2018-12-06T05:49:54.619Z,40.17
2018-12-06T05:50:58.752Z,38.10
2018-12-06T05:52:02.856Z,37.57
2018-12-06T05:53:06.979Z,41.17
2018-12-06T05:54:11.058Z,41.93
2018-12-06T05:55:15.208Z,38.40
2018-12-06T05:56:19.417Z,45.60
2018-12-06T05:57:23.612Z,41.50
2018-12-06T05:58:27.669Z,42.60
2018-12-06T05:59:31.826Z,43.93
2018-12-06T06:00:35.963Z,42.20
2018-12-06T06:01:41.747Z,48.67
2018-12-06T06:02:45.875Z,41.90
2018-12-06T06:03:49.977Z,46.23
2018-12-06T06:04:54.043Z,44.37
2018-12-06T06:05:58.121Z,44.67
2018-12-06T06:07:02.395Z,50.90
2018-12-06T06:08:06.552Z,46.43
2018-12-06T06:09:10.625Z,47.67
2018-12-06T06:10:14.716Z,45.63
2018-12-06T06:11:18.938Z,46.27
2018-12-06T06:12:23.217Z,46.67
2018-12-06T06:13:27.420Z,51.87
2018-12-06T06:14:31.523Z,50.93
2018-12-06T06:15:35.631Z,57.90
2018-12-06T06:16:39.726Z,54.77
2018-12-06T06:17:43.871Z,56.33
2018-12-06T06:18:47.989Z,58.90
2018-12-06T06:19:52.128Z,53.23
2018-12-06T06:20:56.274Z,54.80
2018-12-06T06:22:00.365Z,52.57
2018-12-06T06:23:04.438Z,50.23
2018-12-06T06:24:08.561Z,49.07
2018-12-06T06:25:12.864Z,48.13
2018-12-06T06:26:17.090Z,47.30
2018-12-06T06:27:21.278Z,42.57
2018-12-06T06:28:25.400Z,44.87
2018-12-06T06:29:29.687Z,45.80
2018-12-06T06:30:33.925Z,42.90
2018-12-06T06:31:38.043Z,43.33
2018-12-06T06:32:42.295Z,43.20
2018-12-06T06:33:46.964Z,46.80
2018-12-06T06:34:51.166Z,46.17
2018-12-06T06:35:55.304Z,51.73
2018-12-06T06:37:12.071Z,51.30
2018-12-06T06:38:16.264Z,46.60
2018-12-06T06:39:20.499Z,56.00
2018-12-06T06:40:24.722Z,51.50
2018-12-06T06:41:28.901Z,50.80
2018-12-06T06:42:33.127Z,56.33
2018-12-06T06:43:37.284Z,54.37
2018-12-06T06:44:41.444Z,57.17
2018-12-06T06:45:45.557Z,49.80
2018-12-06T06:46:49.765Z,47.00
2018-12-06T06:47:53.999Z,45.53
2018-12-06T06:48:58.143Z,42.67
2018-12-06T06:50:02.366Z,46.50
2018-12-06T06:51:06.526Z,44.90
2018-12-06T06:52:10.711Z,42.30
2018-12-06T06:53:14.951Z,42.40
2018-12-06T06:54:19.172Z,44.63
2018-12-06T06:55:23.464Z,40.50
2018-12-06T06:56:27.656Z,44.67
2018-12-06T06:57:31.867Z,42.77
2018-12-06T06:58:36.002Z,41.53
2018-12-06T06:59:40.150Z,43.57
2018-12-06T07:00:44.320Z,42.33
2018-12-06T07:01:48.454Z,40.53
2018-12-06T07:02:52.598Z,40.00
2018-12-06T07:03:57.034Z,40.33
2018-12-06T07:05:01.303Z,42.57
2018-12-06T07:06:05.399Z,44.77
2018-12-06T07:07:09.600Z,43.63
2018-12-06T07:08:13.938Z,42.53
2018-12-06T07:09:18.093Z,41.97
2018-12-06T07:10:22.260Z,49.53
2018-12-06T07:11:26.553Z,43.10
2018-12-06T07:12:30.758Z,43.47
2018-12-06T07:13:34.948Z,43.10
2018-12-06T07:14:39.199Z,45.23
2018-12-06T07:15:43.372Z,42.97
2018-12-06T07:16:47.742Z,42.73
2018-12-06T07:17:51.977Z,47.57
2018-12-06T07:18:56.185Z,46.33
2018-12-06T07:20:00.356Z,43.97
2018-12-06T07:21:04.594Z,41.13
2018-12-06T07:22:08.800Z,41.87
2018-12-06T07:23:12.983Z,45.03
2018-12-06T07:24:17.145Z,44.53
2018-12-06T07:25:21.276Z,47.50
2018-12-06T07:26:25.624Z,49.60
2018-12-06T07:27:29.892Z,45.33
2018-12-06T07:28:34.069Z,41.33
2018-12-06T07:29:38.169Z,44.77
2018-12-06T07:30:42.468Z,45.93
2018-12-06T07:31:46.727Z,45.13
2018-12-06T07:32:50.954Z,44.40
2018-12-06T07:33:55.227Z,47.87
2018-12-06T07:34:59.472Z,50.80
2018-12-06T07:36:03.676Z,45.83
2018-12-06T07:37:07.981Z,45.43
2018-12-06T07:38:12.120Z,43.43
2018-12-06T07:39:16.319Z,49.57
2018-12-06T07:40:20.425Z,46.00
2018-12-06T07:41:25.021Z,49.37
2018-12-06T07:42:29.312Z,44.07
2018-12-06T07:43:33.539Z,48.80
2018-12-06T07:44:37.759Z,47.93
2018-12-06T07:45:41.922Z,50.60
2018-12-06T07:46:46.066Z,49.27
2018-12-06T07:47:50.216Z,48.87
2018-12-06T07:48:54.719Z,50.70
2018-12-06T07:49:58.889Z,48.93
2018-12-06T07:51:03.064Z,49.43
2018-12-06T07:52:07.370Z,48.43
2018-12-06T07:53:11.541Z,47.50
2018-12-06T07:54:15.708Z,50.43
2018-12-06T07:55:19.820Z,51.57
2018-12-06T07:56:24.046Z,46.53
2018-12-06T07:57:28.928Z,53.83
2018-12-06T07:58:33.411Z,48.80
2018-12-06T07:59:37.555Z,55.10
2018-12-06T08:00:41.711Z,53.73
2018-12-06T08:01:45.858Z,63.37
2018-12-06T08:02:49.993Z,68.03
2018-12-06T08:03:54.242Z,58.30
2018-12-06T08:04:58.545Z,145.20
2018-12-06T08:06:02.819Z,58.47
2018-12-06T08:07:06.944Z,56.03
2018-12-06T08:08:11.122Z,55.50
2018-12-06T08:09:15.296Z,59.93
2018-12-06T08:10:19.465Z,57.87
2018-12-06T08:11:23.644Z,56.77
2018-12-06T08:12:28.031Z,61.40
2018-12-06T08:13:32.199Z,55.10
2018-12-06T08:14:36.489Z,59.07
2018-12-06T08:15:40.662Z,60.63
2018-12-06T08:16:45.862Z,58.50
2018-12-06T08:17:51.118Z,60.53
2018-12-06T08:18:55.289Z,62.50
2018-12-06T08:19:59.532Z,63.20
2018-12-06T08:21:03.708Z,64.13
2018-12-06T08:22:07.938Z,66.27
2018-12-06T08:23:12.219Z,68.33
2018-12-06T08:24:16.711Z,58.57
2018-12-06T08:25:20.896Z,56.53
2018-12-06T08:26:25.045Z,61.83
2018-12-06T08:27:30.551Z,63.57
2018-12-06T08:28:35.076Z,65.90
2018-12-06T08:29:39.668Z,60.43
2018-12-06T08:30:44.168Z,60.57
2018-12-06T08:31:48.898Z,59.77
2018-12-06T08:32:53.433Z,59.83
2018-12-06T08:33:57.994Z,58.73
2018-12-06T08:35:02.559Z,58.13
2018-12-06T08:36:07.095Z,59.63
2018-12-06T08:37:11.603Z,61.70
2018-12-06T08:38:16.145Z,67.47
2018-12-06T08:39:20.736Z,63.57
2018-12-06T08:40:25.282Z,62.90
2018-12-06T08:41:29.819Z,68.20
2018-12-06T08:42:34.369Z,66.97
2018-12-06T08:43:38.826Z,72.50
2018-12-06T08:44:43.291Z,66.13
2018-12-06T08:45:47.799Z,65.43
2018-12-06T08:46:52.322Z,68.53
2018-12-06T08:47:56.743Z,71.73
2018-12-06T08:49:03.105Z,78.47
2018-12-06T08:50:08.024Z,77.13
2018-12-06T08:51:12.114Z,78.17
2018-12-06T08:52:16.718Z,84.23
2018-12-06T08:53:21.397Z,76.23
2018-12-06T08:54:25.542Z,81.77
2018-12-06T08:55:29.757Z,80.60
2018-12-06T08:56:34.553Z,81.73
2018-12-06T08:57:38.755Z,93.50
2018-12-06T08:58:42.901Z,88.30
2018-12-06T08:59:47.061Z,85.13
2018-12-06T09:00:54.748Z,90.07
2018-12-06T09:02:15.825Z,95.37
2018-12-06T09:03:34.896Z,93.83
2018-12-06T09:04:39.671Z,94.77
2018-12-06T09:05:43.761Z,108.00
2018-12-06T09:06:49.356Z,94.80
2018-12-06T09:07:53.586Z,94.33
2018-12-06T09:08:58.533Z,94.90
2018-12-06T09:10:05.636Z,102.40
2018-12-06T09:11:09.823Z,102.17
2018-12-06T09:12:13.952Z,119.83
2018-12-06T09:13:18.179Z,109.03
2018-12-06T09:14:23.790Z,120.30
2018-12-06T09:15:28.015Z,103.33
2018-12-06T09:16:32.226Z,105.90
2018-12-06T09:17:36.394Z,106.80
2018-12-06T09:18:40.694Z,116.00
2018-12-06T09:19:44.904Z,111.87
2018-12-06T09:20:49.016Z,108.10
2018-12-06T09:21:53.159Z,110.20
2018-12-06T09:22:57.298Z,124.90
2018-12-06T09:24:01.390Z,117.57
2018-12-06T09:25:06.531Z,114.73
2018-12-06T09:26:10.795Z,121.47
2018-12-06T09:27:15.576Z,106.87
2018-12-06T09:28:19.674Z,124.63
2018-12-06T09:29:24.828Z,114.27
2018-12-06T09:30:47.029Z,113.10
2018-12-06T09:31:51.217Z,108.53
2018-12-06T09:32:55.354Z,106.63
2018-12-06T09:34:05.915Z,122.00
2018-12-06T09:35:10.042Z,106.93
2018-12-06T09:36:14.485Z,119.53
2018-12-06T09:37:19.011Z,109.23
2018-12-06T09:38:23.125Z,118.80
2018-12-06T09:39:27.198Z,100.50
2018-12-06T09:40:31.587Z,111.47
2018-12-06T09:41:35.753Z,106.80
2018-12-06T09:42:39.840Z,108.47
2018-12-06T09:43:44.018Z,105.33
2018-12-06T09:44:48.241Z,98.57
2018-12-06T09:47:45.768Z,120.90
2018-12-06T09:48:49.811Z,117.03
2018-12-06T09:49:53.855Z,157.13
2018-12-06T09:50:57.964Z,114.97
2018-12-06T09:52:02.232Z,112.43
2018-12-06T09:53:06.298Z,111.77
2018-12-06T09:54:10.492Z,100.30
2018-12-06T09:55:14.530Z,106.13
2018-12-06T09:56:18.622Z,105.77
2018-12-06T09:57:22.705Z,105.17
2018-12-06T09:58:26.736Z,104.03
2018-12-06T09:59:30.832Z,104.80
2018-12-06T10:00:34.923Z,94.73
2018-12-06T10:01:39.003Z,86.93
2018-12-06T10:02:43.055Z,90.70
2018-12-06T10:03:47.159Z,81.27
2018-12-06T10:04:51.247Z,83.17
2018-12-06T10:05:55.308Z,80.67
2018-12-06T10:06:59.381Z,76.23
2018-12-06T10:08:03.567Z,78.33
2018-12-06T10:09:07.792Z,76.43
2018-12-06T10:10:12.109Z,72.93
2018-12-06T10:11:16.307Z,83.07
2018-12-06T10:12:20.473Z,77.77
2018-12-06T10:13:24.641Z,81.87
2018-12-06T10:14:28.709Z,77.43
2018-12-06T10:15:32.875Z,82.00
2018-12-06T10:16:36.956Z,84.07
2018-12-06T10:17:41.075Z,86.67
2018-12-06T10:18:45.209Z,87.60
2018-12-06T10:19:49.399Z,87.23
2018-12-06T10:20:53.572Z,86.30
2018-12-06T10:21:57.665Z,96.03
2018-12-06T10:23:01.782Z,98.67
2018-12-06T10:24:05.995Z,98.47
2018-12-06T10:25:10.100Z,91.93
2018-12-06T10:26:14.289Z,107.83
2018-12-06T10:27:18.367Z,106.00
2018-12-06T10:28:22.429Z,108.40
2018-12-06T10:29:26.561Z,106.50
2018-12-06T10:30:30.631Z,120.93
2018-12-06T10:31:34.849Z,111.30
2018-12-06T10:32:38.918Z,123.67
2018-12-06T10:33:43.019Z,120.53
2018-12-06T10:34:53.364Z,123.03
2018-12-06T10:35:53.197Z,156.90
2018-12-06T10:36:57.346Z,133.83
2018-12-06T10:38:01.445Z,126.60
2018-12-06T10:39:08.070Z,139.37
2018-12-06T10:40:12.310Z,142.97
2018-12-06T10:41:16.381Z,128.00
2018-12-06T10:42:20.457Z,141.20
2018-12-06T10:43:24.507Z,122.50
2018-12-06T10:44:31.090Z,131.77
2018-12-06T10:45:35.426Z,120.77
2018-12-06T10:46:39.509Z,123.30
2018-12-06T10:47:44.685Z,123.13
2018-12-06T10:48:48.803Z,128.73
2018-12-06T10:49:52.883Z,118.70
2018-12-06T10:52:09.438Z,115.83
2018-12-06T10:53:13.527Z,106.90
2018-12-06T10:54:17.593Z,107.67
2018-12-06T10:55:21.671Z,109.53
2018-12-06T10:56:25.896Z,107.50
2018-12-06T10:57:30.001Z,105.83
2018-12-06T10:58:34.154Z,106.80
2018-12-06T10:59:38.234Z,113.67
2018-12-06T11:00:47.609Z,101.27
2018-12-06T11:01:57.340Z,144.50
2018-12-06T11:03:06.669Z,103.70
2018-12-06T11:04:10.788Z,95.67
2018-12-06T11:05:14.847Z,100.90
2018-12-06T11:06:18.983Z,100.47
2018-12-06T11:07:23.049Z,124.67
2018-12-06T11:08:27.136Z,105.03
2018-12-06T11:09:31.209Z,101.03
2018-12-06T11:10:35.317Z,102.63
2018-12-06T11:11:40.515Z,94.87
2018-12-06T11:12:44.683Z,95.33
2018-12-06T11:13:48.780Z,89.87
2018-12-06T11:14:52.860Z,95.80
2018-12-06T11:15:57.002Z,98.07
2018-12-06T11:17:01.203Z,91.27
2018-12-06T11:18:05.314Z,95.37
2018-12-06T11:19:09.420Z,94.87
2018-12-06T11:20:13.573Z,89.70
2018-12-06T11:21:17.718Z,92.63
2018-12-06T11:22:21.895Z,97.20
2018-12-06T11:23:26.023Z,89.77
2018-12-06T11:24:30.189Z,93.07
2018-12-06T11:25:34.297Z,88.27
2018-12-06T11:26:38.433Z,93.50
2018-12-06T11:27:45.388Z,91.53
2018-12-06T11:28:49.499Z,86.73
2018-12-06T11:29:53.582Z,84.37
2018-12-06T11:30:57.685Z,95.00
2018-12-06T11:32:01.790Z,85.00
2018-12-06T11:33:05.850Z,82.27
2018-12-06T11:34:10.012Z,80.47
2018-12-06T11:35:14.293Z,80.57
2018-12-06T11:36:18.451Z,78.83
2018-12-06T11:37:22.534Z,83.60
2018-12-06T11:38:26.572Z,77.67
2018-12-06T11:39:30.655Z,81.87
2018-12-06T11:40:34.689Z,77.80
2018-12-06T11:41:43.017Z,76.47
2018-12-06T11:42:45.105Z,78.23
2018-12-06T11:43:49.175Z,86.67
2018-12-06T11:44:53.201Z,76.07
2018-12-06T11:45:57.379Z,77.00
2018-12-06T11:47:01.448Z,72.27
2018-12-06T11:48:05.515Z,76.97
2018-12-06T11:49:09.614Z,74.93
2018-12-06T11:50:13.770Z,68.87
2018-12-06T11:51:17.955Z,71.93
2018-12-06T11:52:22.051Z,71.37
2018-12-06T11:53:26.123Z,69.60
2018-12-06T11:54:30.187Z,68.70
2018-12-06T11:55:34.412Z,69.00
2018-12-06T11:56:38.587Z,68.80
2018-12-06T11:57:42.717Z,71.80
2018-12-06T11:58:46.881Z,67.00
2018-12-06T11:59:50.901Z,67.77
2018-12-06T12:00:55.001Z,69.50
2018-12-06T12:01:59.082Z,64.47
2018-12-06T12:03:03.157Z,68.20
2018-12-06T12:04:07.191Z,69.33
2018-12-06T12:05:11.318Z,65.03
2018-12-06T12:06:15.423Z,64.43
2018-12-06T12:07:19.567Z,55.03
2018-12-06T12:08:23.614Z,61.93
2018-12-06T12:09:27.781Z,58.00
2018-12-06T12:10:31.846Z,58.43
2018-12-06T12:11:36.032Z,59.43
2018-12-06T12:12:42.120Z,60.63
2018-12-06T12:13:48.250Z,59.87
2018-12-06T12:14:52.295Z,53.83
2018-12-06T12:15:56.372Z,58.03
2018-12-06T12:17:00.458Z,56.73
2018-12-06T12:18:04.620Z,56.03
2018-12-06T12:19:08.759Z,52.80
2018-12-06T12:20:12.838Z,55.70
2018-12-06T12:21:16.995Z,53.67
2018-12-06T12:22:21.255Z,53.40
2018-12-06T12:23:25.332Z,52.50
2018-12-06T12:24:29.406Z,48.47
2018-12-06T12:25:33.444Z,53.33
2018-12-06T12:26:37.543Z,53.93
2018-12-06T12:27:41.612Z,49.10
2018-12-06T12:28:45.711Z,50.30
2018-12-06T12:29:49.831Z,47.03
2018-12-06T12:30:53.956Z,45.47
2018-12-06T12:31:58.036Z,44.20
2018-12-06T12:33:02.236Z,42.30
2018-12-06T12:34:06.324Z,39.63
2018-12-06T12:35:10.515Z,42.67
2018-12-06T12:36:14.715Z,42.67
2018-12-06T12:37:18.811Z,41.00
2018-12-06T12:38:22.886Z,43.27
2018-12-06T12:39:26.945Z,38.13
2018-12-06T12:40:31.056Z,36.03
2018-12-06T12:41:35.159Z,40.40
2018-12-06T12:42:39.209Z,33.30
2018-12-06T12:43:43.295Z,38.93
2018-12-06T12:44:47.428Z,32.60
2018-12-06T12:45:51.552Z,32.37
2018-12-06T12:46:55.714Z,36.53
2018-12-06T12:47:59.785Z,33.60
2018-12-06T12:49:03.838Z,31.47
2018-12-06T12:50:09.205Z,35.73
2018-12-06T12:51:13.752Z,33.70
2018-12-06T12:52:17.855Z,33.20
2018-12-06T12:53:23.024Z,33.07
2018-12-06T12:54:27.289Z,32.40
2018-12-06T12:55:31.343Z,32.10
2018-12-06T12:56:35.430Z,30.90
2018-12-06T12:57:39.547Z,32.53
2018-12-06T12:58:43.663Z,31.87
2018-12-06T12:59:47.772Z,36.77
2018-12-06T13:00:51.830Z,30.60
2018-12-06T13:01:55.891Z,29.97
2018-12-06T13:02:59.992Z,32.93
2018-12-06T13:04:04.285Z,33.07
2018-12-06T13:05:08.527Z,30.57
2018-12-06T13:06:12.702Z,29.73
2018-12-06T13:07:16.843Z,33.13
2018-12-06T13:08:21.105Z,32.63
2018-12-06T13:09:26.303Z,34.63
2018-12-06T13:10:30.363Z,31.20
2018-12-06T13:11:34.470Z,34.63
2018-12-06T13:12:38.641Z,36.83
2018-12-06T13:13:42.771Z,37.17
2018-12-06T13:14:46.871Z,37.80
2018-12-06T13:15:51.106Z,41.70
2018-12-06T13:16:55.156Z,37.00
2018-12-06T13:17:59.274Z,36.23
2018-12-06T13:19:03.399Z,35.33
2018-12-06T13:20:07.822Z,38.03
2018-12-06T13:21:12.093Z,33.00
2018-12-06T13:22:16.133Z,35.03
2018-12-06T13:23:20.231Z,35.77
2018-12-06T13:24:24.328Z,32.53
2018-12-06T13:25:28.379Z,32.90
2018-12-06T13:26:32.596Z,32.37
2018-12-06T13:27:36.667Z,31.90
2018-12-06T13:28:40.941Z,34.83
2018-12-06T13:29:45.185Z,33.80
2018-12-06T13:30:49.324Z,36.07
2018-12-06T13:31:53.399Z,33.30
2018-12-06T13:32:57.503Z,32.33
2018-12-06T13:34:01.606Z,31.47
2018-12-06T13:35:05.952Z,32.97
2018-12-06T13:36:10.157Z,31.13
2018-12-06T13:37:14.230Z,41.23
2018-12-06T13:38:18.443Z,39.97
2018-12-06T13:39:22.837Z,32.30
2018-12-06T13:40:26.903Z,34.77
2018-12-06T13:41:30.995Z,34.57
2018-12-06T13:42:35.075Z,31.47
2018-12-06T13:43:39.295Z,35.23
2018-12-06T13:44:43.418Z,30.73
2018-12-06T13:45:47.571Z,37.07
2018-12-06T13:46:51.662Z,37.57
2018-12-06T13:47:55.853Z,32.93
2018-12-06T13:48:59.925Z,32.60